EGPDEGNT

Guest
Details From EGPD - Aberdeen Dyce
To EGNT - Newcastle
Flight Number -
Tags generated
Created
Modified
Stats Distance 131 nm / 243 km
Max Altitude 8,200 ft / 2,499 m
Waypoints 3
Social Downloads 2
Likes 0
Share VATSIM

Download

Looking for another format? Having issues loading an existing format? Contact us
Advertisement - Login to hide

Notes

Basic altitude profile: - Ascent Rate: 2500ft/min - Ascent Speed: 250kts - Cruise Altitude: 30000ft - Cruise Speed: 480kts - Descent Rate: 1500ft/min - Descent Speed: 250kts Options: - Use NATs: yes - Use PACOTS: yes - Use low airways: yes - Use high airways: yes

Route

EGPD ADN30 EGNT

ID Type Via Altitude (ft/m) Position (lat/lon) Dist (leg/tot) Name
O EGPD APT - 0 / 0 57.20362 / -2.19902 - / 0 nm Aberdeen Dyce
ADN30 FIX - 8,200 / 2,499 56.82250 / -2.07639 23 / 23 nm
O EGNT APT - 0 / 0 55.03792 / -1.68983 107 / 131 nm Newcastle

Altitude Profile

Advertisement - Login to hide

EGPD

Details ICAO EGPD (ABZ)
Name Aberdeen Dyce
Region United Kingdom
Timezone Europe/London (UTC+1.0)
Stats Elevation 213 ft / 65 m (AMSL)
Location 57.203700° -2.199130°
Runways 4
Magnetic Variation 1.877° W

METAR

EGPD 162220Z AUTO VRB02KT 9999 NCD 11/08 Q1007 NOSIG

Decode

TAF

TAF AMD EGPD 161958Z 1619/1718 18007KT 9999 FEW040= TAF ETAD 162001Z 1620/1802 VRB06KT 9999 FEW200 QNH3008INS BECMG 1623/1624 VRB06KT 6000 BR SKC QNH3001INS BECMG 1706/1707 VRB06KT 9999 NSW FEW150 QNH3007INS BECMG 1723/1724 VRB06KT 9000 BR SKC QNH3000INS TX22/1714Z TN06/1704Z

Decode

Departure Runways

ID Width Length Bearing (true/mag) Surface Threshold Overrun Markings Lighting
05 151 ft / 46 m 1,563 ft / 477 m 46.38° / 48.26° ASPHALT 0 ft / 0 m 0 ft / 0 m UK-APP EDGE THRESHOLD
14 118 ft / 36 m 1,908 ft / 582 m 139.20° / 141.08° ASPHALT 0 ft / 0 m 292 ft / 89 m UK-APP
16 151 ft / 46 m 6,391 ft / 1,948 m 158.24° / 160.12° ASPHALT 0 ft / 0 m 0 ft / 0 m PREC-APP CENTERLINE EDGE THRESHOLD CALVERT
18 75 ft / 23 m 854 ft / 260 m 179.48° / 181.36° ASPHALT 0 ft / 0 m 0 ft / 0 m UK-APP
23 151 ft / 46 m 1,563 ft / 477 m 226.38° / 228.26° ASPHALT 0 ft / 0 m 0 ft / 0 m UK-APP EDGE THRESHOLD
32 118 ft / 36 m 1,908 ft / 582 m 319.21° / 321.09° ASPHALT 0 ft / 0 m 180 ft / 55 m UK-APP
34 151 ft / 46 m 6,391 ft / 1,948 m 338.25° / 340.13° ASPHALT 0 ft / 0 m 0 ft / 0 m PREC-APP CENTERLINE EDGE THRESHOLD CALVERT
36 75 ft / 23 m 854 ft / 260 m 359.48° / 1.36° ASPHALT 0 ft / 0 m 0 ft / 0 m UK-APP

EGNT

Details ICAO EGNT (NCL)
Name Newcastle
Region United Kingdom
Timezone Europe/London (UTC+1.0)
Stats Elevation 266 ft / 81 m (AMSL)
Location 55.037900° -1.689810°
Runways 1
Magnetic Variation 1.341° W

METAR

EGNT 162220Z 21007KT 160V240 9999 FEW030 13/10 Q1011

Decode

TAF

TAF EGNT 161651Z 1618/1718 21012KT 9999 SCT030 PROB30 TEMPO 1619/1624 9000 -RA BKN009 BECMG 1622/1701 21002KT PROB30 1701/1709 4000 BR BECMG 1709/1712 27010KT

Decode

Destination Runways

ID Width Length Bearing (true/mag) Surface Threshold Overrun Markings Lighting
07 151 ft / 46 m 7,621 ft / 2,323 m 65.13° / 66.48° ASPHALT 394 ft / 120 m 108 ft / 33 m UK-PREC-APP CENTERLINE EDGE THRESHOLD CALVERT TDZ
25 151 ft / 46 m 7,621 ft / 2,323 m 245.16° / 246.50° ASPHALT 446 ft / 136 m 56 ft / 17 m UK-PREC-APP CENTERLINE EDGE THRESHOLD CALVERT TDZ

Approach Navaids

Runway Type Ident Frequency Range Bearing (true/mag) Slope Elevation
07 LOC-ILS INC 111.50 MHz 18 nm / 33 km 65.18° / 66.52 ° - 297 ft / 91 m (AMSL)
07 GS INC 111.50 MHz 10 nm / 19 km 65.30° / 66.64 ° 3.00° 297 ft / 91 m (AMSL)
07 DME INC 111.50 MHz 18 nm / 33 km - - 256 ft / 78 m (AMSL)
25 DME INWC 111.50 MHz 18 nm / 33 km - - 256 ft / 78 m (AMSL)
25 GS INWC 111.50 MHz 10 nm / 19 km 245.30° / 246.64 ° 3.00° 297 ft / 91 m (AMSL)
25 LOC-ILS INWC 111.50 MHz 18 nm / 33 km 245.12° / 246.46 ° - 279 ft / 85 m (AMSL)

Popular Alternatives